Winnetka, California
Current Conditions -  °F | °C
As of 2:51 PM on Friday 28 Nov 2014 (Local Time) from KVNY Reporting Station
Clear Clear  
Wind Chill: 81°   Ceiling: Unl
Heat Index: 81°   Visibility: 10mi
Dew Point: 27°   Wind: 9mph
Humidity: 14%   Direction: 160°SSE
Pressure: 29.89"   Gusts: NA
Location:  34.21°N, 118.57°W
Report Text: KVNY 282251Z 16008KT 10SM CLR 27/M03 A2989 RMK AO2 SLP114 T02721028
Loading
Personal Weather Stations






























Interactive Weather Map New forecast layout! Learn more

10-Day Weather Forecast

Advertisements
Track Severe Weather on mobile